Time;durP1;ratioP1;P1;durP2;ratioP2;P2;SDS_P1;SDS_P2;PMS_P1;PMS_P2;Temp;Humidity;BMP_temperature;BMP_pressure;BME280_temperature;BME280_humidity;BME280_pressure;Samples;Min_cycle;Max_cycle;Signal;HPM_P1;HPM_P2
2023/10/18 00:00:04;;;;;;;7.60;4.82;;;5.20;99.90;;;;;;5094415;28;20078;-71
2023/10/18 00:02:30;;;;;;;12.15;5.70;;;5.20;99.90;;;;;;5095648;28;20040;-71
2023/10/18 00:04:57;;;;;;;8.82;5.30;;;5.20;99.90;;;;;;5095009;28;20135;-72
2023/10/18 00:07:27;;;;;;;8.88;5.20;;;5.20;99.90;;;;;;5093878;28;20142;-72
2023/10/18 00:09:53;;;;;;;7.82;5.03;;;5.20;99.90;;;;;;5093560;28;20051;-71
2023/10/18 00:12:20;;;;;;;8.45;5.47;;;5.20;99.90;;;;;;5094230;28;20044;-71
2023/10/18 00:14:49;;;;;;;10.18;5.10;;;5.20;99.90;;;;;;5094311;28;20487;-71
2023/10/18 00:17:15;;;;;;;9.13;5.10;;;4.80;99.90;;;;;;5093824;28;20044;-72
2023/10/18 00:19:40;;;;;;;;;;;5.20;99.90;;;;;;5094304;28;20059;-71
2023/10/18 00:22:09;;;;;;;8.82;5.00;;;5.60;99.90;;;;;;5093126;28;19923;-72
2023/10/18 00:24:37;;;;;;;9.55;5.70;;;5.20;99.90;;;;;;5093477;28;20047;-71
2023/10/18 00:27:03;;;;;;;9.77;5.95;;;5.20;99.90;;;;;;5094195;28;20475;-71
2023/10/18 00:29:30;;;;;;;10.75;5.30;;;5.20;99.90;;;;;;5094243;28;20044;-71
2023/10/18 00:31:56;;;;;;;10.07;5.43;;;5.20;99.90;;;;;;5093601;28;20128;-72
2023/10/18 00:34:22;;;;;;;8.75;5.20;;;5.10;99.90;;;;;;5093962;28;20048;-71
2023/10/18 00:36:47;;;;;;;;;;;5.20;99.90;;;;;;5093907;28;20055;-71
2023/10/18 00:39:28;;;;;;;9.20;4.78;;;5.20;99.90;;;;;;5093385;28;20003;-71
2023/10/18 00:42:23;;;;;;;9.55;5.22;;;5.20;99.90;;;;;;5093757;28;20044;-71
2023/10/18 00:44:43;;;;;;;12.50;5.75;;;5.20;99.90;;;;;;5072964;28;20197;-71
2023/10/18 00:47:13;;;;;;;10.50;6.80;;;5.20;99.90;;;;;;5084452;28;20070;-71
2023/10/18 00:49:39;;;;;;;11.95;6.20;;;5.20;99.90;;;;;;5094060;28;20120;-71
2023/10/18 00:52:07;;;;;;;10.52;6.50;;;5.20;99.90;;;;;;5092061;28;20387;-72
2023/10/18 00:54:32;;;;;;;13.52;7.03;;;5.10;99.90;;;;;;5073748;28;20155;-71
2023/10/18 00:56:58;;;;;;;;;;;5.10;99.90;;;;;;5074693;28;20124;-72
2023/10/18 00:59:26;;;;;;;13.27;7.93;;;5.10;99.90;;;;;;5090514;28;19931;-71
2023/10/18 01:02:11;;;;;;;14.35;9.05;;;5.10;99.90;;;;;;5093301;28;20126;-71
2023/10/18 01:04:37;;;;;;;16.55;9.00;;;5.00;99.90;;;;;;5093310;28;20506;-71
2023/10/18 01:07:14;;;;;;;14.95;8.60;;;5.00;99.90;;;;;;5092350;28;20052;-71
2023/10/18 01:09:47;;;;;;;15.00;7.78;;;5.10;99.90;;;;;;5093219;28;20166;-71
2023/10/18 01:12:15;;;;;;;13.80;7.75;;;5.10;99.90;;;;;;5093317;28;20052;-71
2023/10/18 01:14:41;;;;;;;12.35;6.85;;;5.30;99.90;;;;;;5092482;28;20048;-71
2023/10/18 01:17:08;;;;;;;11.40;7.20;;;5.00;99.90;;;;;;5092569;28;20443;-71
2023/10/18 01:19:35;;;;;;;13.00;7.03;;;5.10;99.90;;;;;;5093078;28;20059;-71
2023/10/18 01:22:02;;;;;;;12.68;7.15;;;5.50;99.90;;;;;;5093688;28;20048;-71
2023/10/18 01:24:35;;;;;;;12.40;6.75;;;5.00;99.90;;;;;;5094005;28;20596;-71
2023/10/18 01:27:02;;;;;;;14.77;7.47;;;5.20;99.90;;;;;;5092456;28;20059;-72
2023/10/18 01:29:28;;;;;;;13.60;7.65;;;5.00;99.90;;;;;;5072410;28;20127;-71
2023/10/18 01:31:55;;;;;;;14.45;8.25;;;5.00;99.90;;;;;;5072371;28;20048;-71
2023/10/18 01:34:21;;;;;;;12.80;7.90;;;5.00;99.90;;;;;;5081761;28;20051;-71
2023/10/18 01:36:50;;;;;;;;;;;5.00;99.90;;;;;;5093181;28;20403;-71
2023/10/18 01:39:22;;;;;;;13.80;7.70;;;5.00;99.90;;;;;;5092971;28;19942;-71
2023/10/18 01:41:49;;;;;;;13.45;7.97;;;5.00;99.90;;;;;;5092911;28;20032;-71
2023/10/18 01:44:27;;;;;;;13.63;8.60;;;5.00;99.90;;;;;;5092246;28;20403;-71
2023/10/18 01:46:55;;;;;;;12.60;7.72;;;5.00;99.90;;;;;;5091764;28;20048;-71
2023/10/18 01:49:25;;;;;;;16.67;8.32;;;5.00;99.90;;;;;;5092108;28;20109;-71
2023/10/18 01:51:53;;;;;;;15.18;8.90;;;5.00;99.90;;;;;;5092280;28;20074;-71
2023/10/18 01:54:20;;;;;;;14.98;8.38;;;4.90;99.90;;;;;;5093552;28;20487;-71
2023/10/18 01:56:53;;;;;;;13.27;8.32;;;5.80;99.90;;;;;;5091825;28;20048;-72
2023/10/18 01:59:19;;;;;;;15.90;8.68;;;5.00;99.90;;;;;;5092094;28;20475;-71
2023/10/18 02:01:45;;;;;;;;;;;4.90;99.90;;;;;;5092658;28;20112;-71
2023/10/18 02:04:23;;;;;;;17.55;8.52;;;5.10;99.90;;;;;;5092198;28;19924;-71
2023/10/18 02:06:50;;;;;;;15.05;8.27;;;4.90;99.90;;;;;;5091921;28;20045;-71
2023/10/18 02:09:16;;;;;;;15.23;8.77;;;4.90;99.90;;;;;;5091810;28;20056;-71
2023/10/18 02:11:43;;;;;;;17.48;9.07;;;4.90;99.90;;;;;;5091797;28;20040;-71
2023/10/18 02:14:10;;;;;;;18.85;9.45;;;4.90;99.90;;;;;;5091558;28;20040;-71
2023/10/18 02:16:36;;;;;;;15.45;8.88;;;4.80;99.90;;;;;;5091674;28;20061;-71
2023/10/18 02:19:01;;;;;;;;;;;4.80;99.90;;;;;;5092491;28;20094;-72
2023/10/18 02:21:27;;;;;;;15.05;9.00;;;4.80;99.90;;;;;;5093084;28;19920;-71
2023/10/18 02:23:53;;;;;;;;;;;4.80;99.90;;;;;;5091546;28;20083;-71
2023/10/18 02:26:30;;;;;;;14.68;8.68;;;4.80;99.90;;;;;;5091929;28;20351;-71
2023/10/18 02:28:59;;;;;;;17.45;9.70;;;4.80;99.90;;;;;;5091581;28;20506;-71
2023/10/18 02:31:25;;;;;;;16.15;9.65;;;4.80;99.90;;;;;;5091515;28;20052;-72
2023/10/18 02:33:53;;;;;;;19.73;9.45;;;5.20;99.90;;;;;;5091609;28;20040;-71
2023/10/18 02:36:23;;;;;;;18.30;9.98;;;4.80;99.90;;;;;;5091453;28;20051;-71
2023/10/18 02:38:52;;;;;;;18.05;9.93;;;4.70;99.90;;;;;;5091114;28;20589;-71
2023/10/18 02:41:21;;;;;;;19.02;9.40;;;4.70;99.90;;;;;;5092205;28;20056;-71
2023/10/18 02:43:48;;;;;;;17.30;10.32;;;4.70;99.90;;;;;;5091111;28;20135;-71
2023/10/18 02:46:23;;;;;;;15.48;9.02;;;5.20;99.90;;;;;;5091280;28;20059;-71
2023/10/18 02:49:00;;;;;;;18.77;10.40;;;4.70;99.90;;;;;;5091419;28;20093;-71
2023/10/18 02:51:28;;;;;;;17.67;9.82;;;4.70;99.90;;;;;;5091812;28;20387;-71
2023/10/18 02:54:39;;;;;;;20.75;10.93;;;4.70;99.90;;;;;;5090977;28;20097;-71
2023/10/18 02:56:55;;;;;;;19.38;9.93;;;4.70;99.90;;;;;;5080454;28;20056;-71
2023/10/18 02:59:24;;;;;;;17.98;10.55;;;4.60;99.90;;;;;;5092633;28;20047;-71
2023/10/18 03:01:52;;;;;;;18.23;10.43;;;4.70;99.90;;;;;;5091561;28;20044;-71
2023/10/18 03:04:19;;;;;;;20.45;11.10;;;4.60;99.90;;;;;;5091386;28;20051;-71
2023/10/18 03:06:50;;;;;;;19.42;10.70;;;4.60;99.90;;;;;;5092367;28;20051;-71
2023/10/18 03:12:01;;;;;;;18.80;10.57;;;4.60;99.90;;;;;;5091290;28;20059;-71
2023/10/18 03:14:41;;;;;;;19.80;11.00;;;4.50;99.90;;;;;;5092312;28;20446;-71
2023/10/18 03:17:23;;;;;;;22.88;12.23;;;4.50;99.90;;;;;;5095006;28;20062;-71
2023/10/18 03:19:56;;;;;;;19.88;11.32;;;4.60;99.90;;;;;;5095076;28;20113;-72
2023/10/18 03:22:25;;;;;;;21.83;11.65;;;4.50;99.90;;;;;;5095777;28;20048;-71
2023/10/18 03:24:55;;;;;;;18.50;11.27;;;4.60;99.90;;;;;;5094619;28;20043;-71
2023/10/18 03:27:24;;;;;;;22.52;10.75;;;4.50;99.90;;;;;;5095493;28;20058;-70
2023/10/18 03:29:57;;;;;;;21.80;12.07;;;4.50;99.90;;;;;;5094870;28;20484;-71
2023/10/18 03:32:24;;;;;;;21.17;11.27;;;4.50;99.90;;;;;;5094911;28;20077;-71
2023/10/18 03:34:52;;;;;;;20.55;12.13;;;4.50;99.90;;;;;;5094111;28;20036;-71
2023/10/18 03:37:21;;;;;;;21.02;12.07;;;4.50;99.90;;;;;;5094939;28;20055;-71
2023/10/18 03:39:53;;;;;;;19.42;11.57;;;4.40;99.90;;;;;;5094976;28;20113;-71
2023/10/18 03:42:31;;;;;;;21.17;11.82;;;4.50;99.90;;;;;;5094856;28;20127;-71
2023/10/18 03:45:01;;;;;;;19.95;11.48;;;4.40;99.90;;;;;;5094267;28;20055;-71
2023/10/18 03:47:36;;;;;;;21.65;12.10;;;4.50;99.90;;;;;;5094434;28;20529;-71
2023/10/18 03:50:02;;;;;;;21.40;11.88;;;4.50;99.90;;;;;;5094116;28;20523;-71
2023/10/18 03:52:31;;;;;;;22.83;12.07;;;4.50;99.90;;;;;;5094686;28;20127;-71
2023/10/18 03:57:28;;;;;;;;;;;4.70;99.90;;;;;;5094623;28;20429;-71
2023/10/18 03:59:58;;;;;;;24.20;12.70;;;4.50;99.90;;;;;;5094390;28;19973;-71
2023/10/18 04:04:57;;;;;;;23.23;12.32;;;4.50;99.90;;;;;;5095429;28;20134;-71
2023/10/18 04:07:26;;;;;;;22.55;11.98;;;4.50;99.90;;;;;;5094536;28;20044;-72
2023/10/18 04:10:17;;;;;;;23.60;12.43;;;4.50;99.90;;;;;;5093686;28;20055;-71
2023/10/18 04:12:43;;;;;;;;;;;4.50;99.90;;;;;;5093850;28;20400;-72
2023/10/18 04:15:29;;;;;;;21.20;12.07;;;4.50;99.90;;;;;;5094166;28;19920;-72
2023/10/18 04:20:34;;;;;;;19.35;11.80;;;4.50;99.90;;;;;;5095417;28;20044;-71
2023/10/18 04:23:12;;;;;;;22.77;12.60;;;4.50;99.90;;;;;;5094948;28;20079;-70
2023/10/18 04:25:38;;;;;;;21.88;12.27;;;4.50;99.90;;;;;;5093847;28;20056;-70
2023/10/18 04:28:04;;;;;;;21.00;12.27;;;4.50;99.90;;;;;;5093474;28;20399;-71
2023/10/18 04:30:31;;;;;;;27.02;12.13;;;4.50;99.90;;;;;;5093820;28;20479;-70
2023/10/18 04:33:24;;;;;;;21.42;12.60;;;4.50;99.90;;;;;;5094158;28;20146;-71
2023/10/18 04:35:52;;;;;;;21.42;12.48;;;4.40;99.90;;;;;;5093422;28;20080;-70
2023/10/18 04:38:30;;;;;;;20.95;12.40;;;4.40;99.90;;;;;;5093498;28;20048;-71
2023/10/18 04:43:27;;;;;;;23.08;12.88;;;4.40;99.90;;;;;;5085328;28;20471;-70
2023/10/18 04:45:54;;;;;;;25.08;13.40;;;4.40;99.90;;;;;;5094024;28;20451;-70
2023/10/18 04:48:36;;;;;;;23.70;13.32;;;4.70;99.90;;;;;;5093672;28;20101;-70
2023/10/18 04:51:06;;;;;;;21.13;12.90;;;4.40;99.90;;;;;;5093127;28;20047;-71
2023/10/18 04:53:33;;;;;;;24.00;13.80;;;4.40;99.90;;;;;;5092616;28;20075;-70
2023/10/18 04:55:58;;;;;;;23.08;13.02;;;4.40;99.90;;;;;;5092996;28;20047;-70
2023/10/18 04:58:29;;;;;;;;;;;4.40;99.90;;;;;;5093748;28;20036;-71
2023/10/18 05:00:57;;;;;;;25.20;13.65;;;4.30;99.90;;;;;;5093688;28;19943;-70
2023/10/18 05:03:32;;;;;;;23.38;12.98;;;4.40;99.90;;;;;;5093189;28;20040;-70
2023/10/18 05:05:57;;;;;;;23.77;13.70;;;4.30;99.90;;;;;;5092543;28;20494;-70
2023/10/18 05:08:23;;;;;;;;;;;4.40;99.90;;;;;;5093366;28;20044;-69
2023/10/18 05:10:52;;;;;;;21.95;12.95;;;4.30;99.90;;;;;;5079247;28;19920;-73
2023/10/18 05:13:32;;;;;;;21.88;12.98;;;4.30;99.90;;;;;;5077090;28;20411;-72
2023/10/18 05:16:04;;;;;;;22.40;13.07;;;4.40;99.90;;;;;;5092754;28;20052;-72
2023/10/18 05:18:30;;;;;;;25.17;14.48;;;4.40;99.90;;;;;;5093000;28;20089;-77
2023/10/18 05:20:57;;;;;;;;;;;4.40;99.90;;;;;;5092272;28;20434;-77
2023/10/18 05:23:26;;;;;;;23.17;13.70;;;5.20;99.90;;;;;;5091655;28;19920;-76
2023/10/18 05:28:49;;;;;;;25.17;14.02;;;4.40;99.90;;;;;;5092590;28;20491;-72
2023/10/18 05:34:02;;;;;;;26.35;14.70;;;4.50;99.90;;;;;;5091738;28;20430;-71
2023/10/18 05:41:51;;;;;;;;;;;4.60;99.90;;;;;;5091751;28;20052;-71
2023/10/18 05:44:17;;;;;;;24.95;14.70;;;4.70;99.90;;;;;;5092722;28;19953;-71
2023/10/18 05:46:46;;;;;;;25.45;14.90;;;4.70;99.90;;;;;;5090899;28;20407;-71
2023/10/18 05:49:15;;;;;;;25.48;14.38;;;4.70;99.90;;;;;;5089149;28;20621;-71
2023/10/18 05:51:53;;;;;;;26.92;15.50;;;4.70;99.90;;;;;;5091086;28;20539;-71
2023/10/18 05:54:22;;;;;;;26.95;15.00;;;4.70;99.90;;;;;;5088002;28;20054;-71
2023/10/18 05:56:53;;;;;;;26.58;15.07;;;4.70;99.90;;;;;;5089116;28;20044;-71
2023/10/18 06:01:48;;;;;;;28.70;16.75;;;4.80;99.90;;;;;;5089444;28;20052;-72
2023/10/18 06:04:23;;;;;;;32.15;18.55;;;4.80;99.90;;;;;;5089990;28;20071;-72
2023/10/18 06:06:49;;;;;;;31.55;17.95;;;4.80;99.90;;;;;;5089770;28;20055;-73
2023/10/18 06:09:26;;;;;;;27.63;16.23;;;4.80;99.90;;;;;;5088987;28;20632;-73
2023/10/18 06:11:52;;;;;;;25.23;15.35;;;4.70;99.90;;;;;;5090084;28;20055;-73
2023/10/18 06:14:18;;;;;;;25.05;15.43;;;4.70;99.90;;;;;;5091178;28;20036;-70
2023/10/18 06:16:51;;;;;;;;;;;4.70;99.90;;;;;;5091934;28;20403;-71
2023/10/18 06:19:22;;;;;;;26.70;14.77;;;4.90;99.90;;;;;;5091994;28;19930;-76
2023/10/18 06:21:57;;;;;;;29.27;16.88;;;4.80;99.90;;;;;;5091757;28;20051;-74
2023/10/18 06:24:25;;;;;;;27.23;16.03;;;4.70;99.90;;;;;;5090549;28;20044;-79
2023/10/18 06:26:54;;;;;;;26.55;15.68;;;4.70;99.90;;;;;;5091342;28;20801;-72
2023/10/18 06:29:25;;;;;;;39.25;20.60;;;4.80;99.90;;;;;;5091281;28;20048;-70
2023/10/18 06:31:54;;;;;;;53.90;26.38;;;4.80;99.90;;;;;;5090900;28;20071;-71
2023/10/18 06:34:22;;;;;;;;;;;6.10;99.90;;;;;;5091708;28;20060;-71
2023/10/18 06:36:49;;;;;;;38.15;19.10;;;4.80;99.90;;;;;;5090316;28;19972;-71
2023/10/18 06:39:38;;;;;;;31.67;17.75;;;4.80;99.90;;;;;;5091879;28;20558;-71
2023/10/18 06:42:12;;;;;;;28.80;16.90;;;4.80;99.90;;;;;;5090307;28;20055;-71
2023/10/18 06:44:42;;;;;;;28.27;16.45;;;4.80;99.90;;;;;;5090869;28;20036;-71
2023/10/18 06:47:13;;;;;;;27.95;16.52;;;4.90;99.90;;;;;;5090768;28;20571;-71
2023/10/18 06:49:47;;;;;;;26.20;17.15;;;4.90;99.90;;;;;;5091069;28;20044;-71
2023/10/18 06:52:21;;;;;;;27.33;16.63;;;4.90;99.90;;;;;;5089166;28;20063;-71
2023/10/18 06:54:46;;;;;;;29.33;16.52;;;4.90;99.90;;;;;;5089261;28;20163;-71
2023/10/18 06:57:15;;;;;;;;;;;5.20;99.90;;;;;;5089930;28;20132;-72
2023/10/18 06:59:45;;;;;;;26.88;16.15;;;5.00;99.90;;;;;;5089234;28;20271;-71
2023/10/18 07:02:12;;;;;;;26.00;15.48;;;5.10;99.90;;;;;;5089221;28;20101;-71
2023/10/18 07:04:38;;;;;;;26.83;15.82;;;5.20;99.90;;;;;;5089147;28;20055;-72
2023/10/18 07:07:20;;;;;;;;;;;5.20;99.90;;;;;;5090759;28;20048;-71
2023/10/18 07:09:49;;;;;;;26.20;15.55;;;5.30;99.90;;;;;;5091492;28;20012;-71
2023/10/18 07:12:17;;;;;;;24.95;14.90;;;5.30;99.90;;;;;;5091314;28;20044;-72
2023/10/18 07:14:46;;;;;;;26.75;15.70;;;5.40;99.90;;;;;;5091068;28;20098;-71
2023/10/18 07:17:14;;;;;;;24.02;14.98;;;5.50;99.90;;;;;;5092142;28;20408;-71
2023/10/18 07:19:48;;;;;;;23.20;15.35;;;5.60;99.90;;;;;;5091048;28;20089;-71
2023/10/18 07:22:18;;;;;;;25.58;15.35;;;5.80;99.90;;;;;;5091333;28;20063;-72
2023/10/18 07:24:59;;;;;;;26.13;15.88;;;5.90;99.90;;;;;;5091005;28;20077;-71
2023/10/18 07:27:29;;;;;;;25.48;15.63;;;6.00;99.90;;;;;;5090811;28;20044;-72
2023/10/18 07:30:01;;;;;;;24.08;14.15;;;6.10;99.90;;;;;;5090381;28;20479;-71
2023/10/18 07:32:28;;;;;;;22.83;14.45;;;6.20;99.90;;;;;;5090066;28;20040;-72
2023/10/18 07:34:57;;;;;;;23.50;13.70;;;6.30;99.90;;;;;;5089183;28;20052;-72
2023/10/18 07:37:41;;;;;;;22.52;14.55;;;6.40;99.90;;;;;;5090147;28;20053;-72
2023/10/18 07:40:09;;;;;;;23.35;13.77;;;6.50;99.90;;;;;;5089647;28;20485;-72
2023/10/18 07:42:35;;;;;;;21.98;13.93;;;6.60;99.90;;;;;;5091011;28;20040;-71
2023/10/18 07:45:04;;;;;;;;;;;6.70;99.90;;;;;;5090361;28;20044;-70
2023/10/18 07:47:37;;;;;;;22.38;13.48;;;6.70;99.90;;;;;;5091439;28;19920;-71
2023/10/18 07:50:25;;;;;;;22.23;13.77;;;6.80;99.90;;;;;;5089716;28;20055;-73
2023/10/18 07:52:54;;;;;;;26.45;15.57;;;6.90;99.90;;;;;;5089089;28;20543;-71
2023/10/18 07:55:22;;;;;;;30.95;17.27;;;7.00;99.90;;;;;;5090563;28;20113;-71
2023/10/18 07:57:49;;;;;;;26.50;15.00;;;7.10;99.90;;;;;;5075542;28;20539;-71
2023/10/18 08:00:21;;;;;;;25.05;14.73;;;7.10;99.90;;;;;;5070701;28;20055;-71
2023/10/18 08:02:47;;;;;;;24.35;14.32;;;7.20;99.90;;;;;;5074245;28;20051;-71
2023/10/18 08:05:18;;;;;;;;;;;7.30;99.90;;;;;;5074275;28;20036;-72
2023/10/18 08:07:49;;;;;;;19.65;13.45;;;7.30;99.90;;;;;;5074557;28;20387;-72
2023/10/18 08:10:19;;;;;;;19.65;12.73;;;7.80;99.90;;;;;;5091179;28;20048;-71
2023/10/18 08:12:49;;;;;;;22.20;13.30;;;7.50;99.90;;;;;;5094413;28;20091;-71
2023/10/18 08:15:16;;;;;;;21.48;12.60;;;8.30;99.90;;;;;;5093995;28;20044;-73
2023/10/18 08:17:46;;;;;;;20.50;12.50;;;7.70;99.90;;;;;;5094337;28;20100;-74
2023/10/18 08:22:44;;;;;;;17.73;11.95;;;8.20;99.90;;;;;;5094053;28;20052;-72
2023/10/18 08:25:24;;;;;;;18.63;12.23;;;7.80;99.90;;;;;;5094292;28;20043;-72
2023/10/18 08:27:50;;;;;;;;;;;8.30;99.90;;;;;;5094329;28;20119;-72
2023/10/18 08:30:24;;;;;;;20.05;11.63;;;8.00;99.90;;;;;;5093622;28;20008;-72
2023/10/18 08:32:51;;;;;;;18.35;11.32;;;8.10;99.90;;;;;;5093586;28;20518;-72
2023/10/18 08:35:21;;;;;;;16.85;11.10;;;8.20;99.90;;;;;;5094113;28;20052;-72
2023/10/18 08:37:47;;;;;;;17.40;10.45;;;8.20;99.90;;;;;;5093122;28;20059;-73
2023/10/18 08:40:37;;;;;;;;;;;8.30;99.90;;;;;;5094414;28;20036;-71
2023/10/18 08:43:28;;;;;;;16.63;10.98;;;8.30;99.90;;;;;;5093677;28;19927;-71
2023/10/18 08:45:55;;;;;;;21.98;12.23;;;8.40;99.90;;;;;;5083235;28;20055;-73
2023/10/18 08:48:28;;;;;;;17.65;12.10;;;8.80;99.90;;;;;;5073120;28;20068;-73
2023/10/18 08:50:56;;;;;;;15.93;10.18;;;8.70;99.90;;;;;;5077318;28;20123;-73
2023/10/18 08:53:26;;;;;;;15.10;10.23;;;9.20;99.90;;;;;;5093287;28;20044;-72
2023/10/18 08:55:53;;;;;;;16.25;10.63;;;9.10;99.90;;;;;;5092870;28;20044;-72
2023/10/18 08:58:20;;;;;;;15.98;10.30;;;9.20;99.90;;;;;;5092447;28;20047;-74
2023/10/18 09:03:14;;;;;;;14.98;9.10;;;9.80;99.90;;;;;;5092816;28;20055;-76
2023/10/18 09:05:40;;;;;;;14.40;9.57;;;10.00;99.90;;;;;;5092809;28;20052;-73
2023/10/18 09:08:14;;;;;;;16.17;9.52;;;10.90;99.90;;;;;;5092818;28;20043;-73
2023/10/18 09:18:20;;;;;;;14.80;9.93;;;10.40;99.90;;;;;;5094238;28;20040;-73
2023/10/18 09:20:55;;;;;;;13.93;9.15;;;10.70;99.90;;;;;;5093605;28;20036;-74
2023/10/18 09:23:25;;;;;;;15.45;9.43;;;10.80;99.90;;;;;;5092557;28;20044;-74
2023/10/18 09:25:51;;;;;;;15.57;10.00;;;11.60;99.90;;;;;;5091697;28;20044;-75
2023/10/18 09:28:33;;;;;;;13.95;8.63;;;11.10;99.90;;;;;;5092605;28;20503;-75
2023/10/18 09:31:12;;;;;;;14.73;8.98;;;11.20;99.90;;;;;;5083335;28;20491;-73
2023/10/18 09:33:58;;;;;;;11.95;8.98;;;11.40;99.90;;;;;;5092658;28;20433;-74
2023/10/18 09:36:24;;;;;;;14.32;8.43;;;11.60;99.90;;;;;;5072342;28;20550;-73
2023/10/18 09:38:51;;;;;;;12.88;8.95;;;12.10;99.90;;;;;;5072408;28;20049;-73
2023/10/18 09:41:18;;;;;;;14.15;8.82;;;11.80;99.90;;;;;;5071955;28;20480;-82
2023/10/18 09:43:44;;;;;;;12.73;8.50;;;12.00;99.90;;;;;;5072287;28;20041;-74
2023/10/18 09:46:10;;;;;;;13.90;8.30;;;12.00;99.90;;;;;;5074454;28;20056;-74
2023/10/18 09:48:43;;;;;;;11.73;8.02;;;12.20;99.90;;;;;;5091465;28;20046;-75
2023/10/18 09:51:23;;;;;;;13.27;8.40;;;12.70;99.90;;;;;;5081029;28;20491;-77
2023/10/18 09:53:51;;;;;;;11.48;7.95;;;12.20;99.90;;;;;;5091148;28;20071;-75
2023/10/18 09:56:33;;;;;;;11.40;8.52;;;12.40;99.90;;;;;;5092095;28;20052;-74
2023/10/18 09:59:25;;;;;;;15.23;8.73;;;12.50;99.90;;;;;;5071640;28;20049;-74
2023/10/18 10:02:08;;;;;;;12.25;8.45;;;12.50;99.90;;;;;;5084957;28;20051;-74
2023/10/18 10:04:39;;;;;;;10.60;7.75;;;12.80;99.90;;;;;;5089618;28;20047;-75
2023/10/18 10:09:50;;;;;;;13.25;8.00;;;12.90;99.90;;;;;;5072401;28;20036;-75
2023/10/18 10:12:17;;;;;;;11.98;7.97;;;12.90;99.90;;;;;;5072918;28;20083;-74
2023/10/18 10:14:43;;;;;;;12.45;8.35;;;12.90;99.90;;;;;;5084076;28;20051;-74
2023/10/18 10:17:20;;;;;;;11.80;8.27;;;13.00;99.90;;;;;;5088276;28;20039;-75
2023/10/18 10:19:52;;;;;;;15.50;8.73;;;12.70;99.90;;;;;;5084099;28;20048;-74
2023/10/18 10:22:24;;;;;;;12.63;7.97;;;12.70;99.90;;;;;;5086562;28;20133;-74
2023/10/18 10:24:59;;;;;;;10.55;7.85;;;12.70;99.90;;;;;;5090643;28;20372;-75
2023/10/18 10:27:27;;;;;;;13.02;7.70;;;12.40;99.90;;;;;;5090956;28;20070;-75
2023/10/18 10:29:58;;;;;;;11.50;7.82;;;12.30;99.90;;;;;;5090351;28;20035;-75
2023/10/18 10:32:31;;;;;;;13.10;7.63;;;12.10;99.90;;;;;;5090806;28;20131;-74
2023/10/18 10:35:24;;;;;;;11.48;7.75;;;12.00;99.90;;;;;;5090688;28;20072;-74
2023/10/18 10:37:53;;;;;;;11.35;8.02;;;12.20;99.90;;;;;;5090211;28;20080;-74
2023/10/18 10:43:01;;;;;;;;;;;12.60;99.90;;;;;;5091379;28;20498;-74
2023/10/18 10:45:38;;;;;;;11.50;7.10;;;12.20;99.90;;;;;;5091005;28;19947;-73
2023/10/18 10:48:16;;;;;;;11.45;7.50;;;12.20;99.90;;;;;;5090368;28;20053;-74
2023/10/18 10:50:53;;;;;;;11.75;7.47;;;12.60;99.90;;;;;;5083957;28;20044;-73
2023/10/18 10:53:44;;;;;;;11.13;7.63;;;12.30;99.90;;;;;;5090830;28;20044;-73
2023/10/18 10:56:20;;;;;;;11.30;7.35;;;12.20;99.90;;;;;;5090353;28;20075;-73
2023/10/18 11:01:40;;;;;;;10.25;6.85;;;12.20;99.90;;;;;;5090815;28;20101;-73
2023/10/18 11:04:14;;;;;;;11.23;7.22;;;12.20;99.90;;;;;;5089779;28;20089;-73
2023/10/18 11:06:44;;;;;;;9.55;7.00;;;12.20;99.90;;;;;;5090819;28;20044;-73
2023/10/18 11:09:21;;;;;;;9.48;6.93;;;12.30;99.90;;;;;;5090345;28;20036;-74
2023/10/18 11:11:46;;;;;;;12.00;7.38;;;12.10;99.90;;;;;;5090210;28;20135;-73
2023/10/18 11:14:18;;;;;;;10.32;6.93;;;12.00;99.90;;;;;;5090493;28;20135;-73
2023/10/18 11:16:53;;;;;;;12.18;7.47;;;12.00;99.90;;;;;;5090501;28;20047;-73
2023/10/18 11:19:28;;;;;;;10.45;7.20;;;12.30;99.90;;;;;;5090965;28;20122;-74
2023/10/18 11:21:54;;;;;;;10.98;8.10;;;12.20;99.90;;;;;;5090388;28;20040;-74
2023/10/18 11:24:21;;;;;;;12.23;7.75;;;12.20;99.90;;;;;;5090371;28;20057;-74
2023/10/18 11:26:57;;;;;;;10.55;7.10;;;12.40;99.90;;;;;;5089828;28;20056;-73
2023/10/18 11:29:26;;;;;;;11.75;7.30;;;12.50;99.90;;;;;;5090378;28;20609;-73
2023/10/18 11:31:58;;;;;;;11.25;7.38;;;12.60;99.90;;;;;;5091013;28;20090;-73
2023/10/18 11:34:26;;;;;;;14.45;7.30;;;12.50;99.90;;;;;;5090272;28;20122;-74
2023/10/18 11:36:54;;;;;;;10.90;7.30;;;12.80;99.90;;;;;;5091675;28;20040;-73
2023/10/18 11:39:23;;;;;;;11.07;7.40;;;12.80;99.90;;;;;;5087148;28;20048;-74
2023/10/18 11:41:53;;;;;;;12.85;8.55;;;12.80;99.90;;;;;;5075767;28;20067;-74
2023/10/18 11:44:33;;;;;;;11.68;7.60;;;12.60;99.90;;;;;;5092360;28;20036;-73
2023/10/18 11:47:18;;;;;;;11.45;8.07;;;12.90;99.90;;;;;;5094127;28;20084;-73
2023/10/18 11:49:45;;;;;;;12.50;8.27;;;13.00;99.90;;;;;;5094723;28;20048;-71
2023/10/18 11:52:21;;;;;;;11.93;7.43;;;13.00;99.90;;;;;;5095907;28;20036;-71
2023/10/18 11:54:52;;;;;;;10.13;7.15;;;13.20;99.90;;;;;;5094017;28;20040;-70
2023/10/18 11:57:35;;;;;;;11.48;7.35;;;13.20;99.90;;;;;;5094173;28;20044;-70
2023/10/18 12:02:45;;;;;;;10.07;7.25;;;13.60;99.90;;;;;;5094427;28;20499;-72
2023/10/18 12:05:14;;;;;;;12.48;8.32;;;13.50;99.90;;;;;;5093478;28;20302;-72
2023/10/18 12:07:46;;;;;;;10.73;7.68;;;13.50;99.90;;;;;;5094111;28;20486;-72
2023/10/18 12:12:57;;;;;;;9.88;7.25;;;13.10;99.90;;;;;;5095213;28;20059;-72
2023/10/18 12:15:25;;;;;;;11.27;7.68;;;13.20;99.90;;;;;;5092961;28;20047;-72
2023/10/18 12:17:52;;;;;;;13.57;8.20;;;13.30;99.90;;;;;;5091475;28;20044;-72
2023/10/18 12:20:25;;;;;;;14.60;8.25;;;13.20;99.90;;;;;;5093606;28;20127;-71
2023/10/18 12:22:51;;;;;;;13.32;7.45;;;13.00;99.90;;;;;;5091272;28;20040;-72
2023/10/18 12:25:20;;;;;;;11.52;7.28;;;12.90;99.90;;;;;;5091973;28;20044;-72
2023/10/18 12:27:52;;;;;;;11.38;7.53;;;12.90;99.90;;;;;;5093008;28;20035;-71
2023/10/18 12:30:38;;;;;;;13.48;7.55;;;12.90;99.90;;;;;;5091887;28;20040;-71
2023/10/18 12:33:06;;;;;;;11.30;7.80;;;13.00;99.90;;;;;;5093897;28;20098;-72
2023/10/18 12:35:37;;;;;;;12.52;8.30;;;12.90;99.90;;;;;;5093775;28;20070;-71
2023/10/18 12:38:13;;;;;;;11.70;7.85;;;12.90;99.90;;;;;;5093324;28;20051;-71
2023/10/18 12:40:41;;;;;;;10.63;7.65;;;12.80;99.90;;;;;;5094923;28;20040;-71
2023/10/18 12:43:19;;;;;;;11.85;7.75;;;12.90;99.90;;;;;;5094387;28;20052;-71
2023/10/18 12:45:47;;;;;;;15.50;7.97;;;12.90;99.90;;;;;;5093625;28;20067;-71
2023/10/18 12:48:14;;;;;;;10.20;6.85;;;12.90;99.90;;;;;;5093406;28;20562;-71
2023/10/18 12:50:46;;;;;;;11.60;6.95;;;13.10;99.90;;;;;;5093220;28;20082;-71
2023/10/18 12:58:47;;;;;;;11.85;6.88;;;13.20;99.90;;;;;;5092994;28;20048;-71
2023/10/18 13:01:14;;;;;;;11.68;7.35;;;13.20;99.90;;;;;;5093512;28;20052;-71
2023/10/18 13:03:56;;;;;;;10.00;7.07;;;13.30;99.90;;;;;;5092925;28;20040;-71
2023/10/18 13:06:30;;;;;;;12.65;7.60;;;13.00;99.90;;;;;;5093392;28;20063;-71
2023/10/18 13:09:15;;;;;;;11.50;6.78;;;13.50;99.90;;;;;;5092440;28;20032;-71
2023/10/18 13:11:44;;;;;;;9.75;6.80;;;13.70;99.90;;;;;;5093166;28;20372;-71
2023/10/18 13:14:15;;;;;;;10.05;6.90;;;13.70;99.90;;;;;;5092842;28;20036;-71
2023/10/18 13:16:44;;;;;;;11.02;6.93;;;13.40;99.90;;;;;;5092681;28;20048;-71
2023/10/18 13:19:14;;;;;;;10.70;7.00;;;13.50;99.90;;;;;;5092611;28;20470;-71
2023/10/18 13:21:40;;;;;;;10.75;6.78;;;13.50;99.90;;;;;;5092938;28;20052;-71
2023/10/18 13:24:28;;;;;;;10.13;6.60;;;13.50;99.90;;;;;;5092730;28;20347;-71
2023/10/18 13:26:59;;;;;;;11.15;7.13;;;13.30;99.90;;;;;;5091959;28;20495;-71
2023/10/18 13:31:57;;;;;;;10.50;7.00;;;13.10;99.90;;;;;;5092444;28;20538;-71
2023/10/18 13:34:23;;;;;;;10.02;6.50;;;12.90;99.90;;;;;;5092380;28;20097;-71
2023/10/18 13:37:12;;;;;;;11.48;7.75;;;12.80;99.90;;;;;;5092427;28;20040;-71
2023/10/18 13:39:39;;;;;;;13.00;7.63;;;12.60;99.90;;;;;;5092455;28;20479;-71
2023/10/18 13:42:11;;;;;;;9.07;6.50;;;12.50;99.90;;;;;;5091952;28;20051;-71
2023/10/18 13:44:37;;;;;;;10.32;7.57;;;12.40;99.90;;;;;;5092416;28;20437;-71
2023/10/18 13:47:03;;;;;;;9.63;7.20;;;12.30;99.90;;;;;;5091609;28;20131;-71
2023/10/18 13:49:28;;;;;;;12.80;7.13;;;12.30;99.90;;;;;;5092682;28;20032;-71
2023/10/18 13:51:54;;;;;;;10.77;7.00;;;12.30;99.90;;;;;;5092637;28;20047;-72
2023/10/18 13:54:24;;;;;;;10.32;6.93;;;12.20;99.90;;;;;;5075992;28;20127;-72
2023/10/18 13:56:49;;;;;;;11.13;7.57;;;12.20;99.90;;;;;;5090174;28;20040;-73
2023/10/18 13:59:17;;;;;;;10.27;6.97;;;12.40;99.90;;;;;;5090565;28;20094;-73
2023/10/18 14:01:54;;;;;;;11.25;7.07;;;12.20;99.90;;;;;;5089148;28;20051;-72
2023/10/18 14:04:25;;;;;;;11.18;7.30;;;12.20;99.90;;;;;;5088807;28;20048;-73